sensor_id;sensor_type;location;lat;lon;timestamp;P1;P2;P0
70520;PMS5003;58442;52.716;23.560;2023-12-14T00:00:56;14;13;7
70520;PMS5003;58442;52.716;23.560;2023-12-14T00:03:02;5;4;2
70520;PMS5003;58442;52.716;23.560;2023-12-14T00:05:04;11;10;5
70520;PMS5003;58442;52.716;23.560;2023-12-14T00:07:06;12;12;6
70520;PMS5003;58442;52.716;23.560;2023-12-14T00:09:11;12;12;7
70520;PMS5003;58442;52.716;23.560;2023-12-14T00:11:13;16;13;9
70520;PMS5003;58442;52.716;23.560;2023-12-14T00:13:15;20;17;6
70520;PMS5003;58442;52.716;23.560;2023-12-14T00:15:16;16;16;8
70520;PMS5003;58442;52.716;23.560;2023-12-14T00:17:26;17;16;10
70520;PMS5003;58442;52.716;23.560;2023-12-14T00:19:28;16;16;10
70520;PMS5003;58442;52.716;23.560;2023-12-14T00:21:30;18;17;9
70520;PMS5003;58442;52.716;23.560;2023-12-14T00:23:33;11;11;7
70520;PMS5003;58442;52.716;23.560;2023-12-14T00:25:41;10;8;4
70520;PMS5003;58442;52.716;23.560;2023-12-14T00:27:43;11;9;4
70520;PMS5003;58442;52.716;23.560;2023-12-14T00:29:44;15;13;6
70520;PMS5003;58442;52.716;23.560;2023-12-14T00:31:46;18;12;5
70520;PMS5003;58442;52.716;23.560;2023-12-14T00:33:56;10;9;6
70520;PMS5003;58442;52.716;23.560;2023-12-14T00:35:58;6;6;4
70520;PMS5003;58442;52.716;23.560;2023-12-14T00:37:59;12;12;7
70520;PMS5003;58442;52.716;23.560;2023-12-14T00:40:01;18;15;8
70520;PMS5003;58442;52.716;23.560;2023-12-14T00:42:11;13;13;8
70520;PMS5003;58442;52.716;23.560;2023-12-14T00:44:13;13;11;7
70520;PMS5003;58442;52.716;23.560;2023-12-14T00:46:14;16;14;7
70520;PMS5003;58442;52.716;23.560;2023-12-14T00:48:16;14;13;6
70520;PMS5003;58442;52.716;23.560;2023-12-14T00:50:26;14;12;8
70520;PMS5003;58442;52.716;23.560;2023-12-14T00:52:28;13;13;7
70520;PMS5003;58442;52.716;23.560;2023-12-14T00:54:29;11;11;4
70520;PMS5003;58442;52.716;23.560;2023-12-14T00:56:31;11;11;5
70520;PMS5003;58442;52.716;23.560;2023-12-14T00:58:41;11;11;6
70520;PMS5003;58442;52.716;23.560;2023-12-14T01:00:43;10;10;6
70520;PMS5003;58442;52.716;23.560;2023-12-14T01:02:44;10;10;6
70520;PMS5003;58442;52.716;23.560;2023-12-14T01:04:46;9;9;5
70520;PMS5003;58442;52.716;23.560;2023-12-14T01:06:56;14;13;7
70520;PMS5003;58442;52.716;23.560;2023-12-14T01:08:57;15;12;5
70520;PMS5003;58442;52.716;23.560;2023-12-14T01:10:59;15;8;5
70520;PMS5003;58442;52.716;23.560;2023-12-14T01:13:01;12;11;5
70520;PMS5003;58442;52.716;23.560;2023-12-14T01:15:11;17;16;9
70520;PMS5003;58442;52.716;23.560;2023-12-14T01:17:13;10;10;4
70520;PMS5003;58442;52.716;23.560;2023-12-14T01:19:14;15;13;7
70520;PMS5003;58442;52.716;23.560;2023-12-14T01:21:16;14;12;4
70520;PMS5003;58442;52.716;23.560;2023-12-14T01:23:26;15;14;7
70520;PMS5003;58442;52.716;23.560;2023-12-14T01:25:27;21;13;6
70520;PMS5003;58442;52.716;23.560;2023-12-14T01:27:29;5;5;4
70520;PMS5003;58442;52.716;23.560;2023-12-14T01:29:31;11;11;6
70520;PMS5003;58442;52.716;23.560;2023-12-14T01:31:41;8;7;5
70520;PMS5003;58442;52.716;23.560;2023-12-14T01:33:43;14;13;3
70520;PMS5003;58442;52.716;23.560;2023-12-14T01:35:46;10;10;5
70520;PMS5003;58442;52.716;23.560;2023-12-14T01:37:48;10;8;4
70520;PMS5003;58442;52.716;23.560;2023-12-14T01:39:56;10;10;7
70520;PMS5003;58442;52.716;23.560;2023-12-14T01:41:57;13;13;6
70520;PMS5003;58442;52.716;23.560;2023-12-14T01:43:59;9;9;4
70520;PMS5003;58442;52.716;23.560;2023-12-14T01:46:01;11;11;5
70520;PMS5003;58442;52.716;23.560;2023-12-14T01:48:11;11;10;7
70520;PMS5003;58442;52.716;23.560;2023-12-14T01:50:13;8;6;4
70520;PMS5003;58442;52.716;23.560;2023-12-14T01:52:14;12;11;8
70520;PMS5003;58442;52.716;23.560;2023-12-14T01:54:16;12;10;6
70520;PMS5003;58442;52.716;23.560;2023-12-14T01:56:26;14;11;6
70520;PMS5003;58442;52.716;23.560;2023-12-14T01:58:27;16;16;6
70520;PMS5003;58442;52.716;23.560;2023-12-14T02:02:43;8;8;5
70520;PMS5003;58442;52.716;23.560;2023-12-14T02:04:44;13;13;4
70520;PMS5003;58442;52.716;23.560;2023-12-14T02:06:46;15;14;6
70520;PMS5003;58442;52.716;23.560;2023-12-14T02:08:47;15;15;8
70520;PMS5003;58442;52.716;23.560;2023-12-14T02:10:49;13;12;7
70520;PMS5003;58442;52.716;23.560;2023-12-14T02:12:56;15;14;7
70520;PMS5003;58442;52.716;23.560;2023-12-14T02:14:57;11;10;6
70520;PMS5003;58442;52.716;23.560;2023-12-14T02:17:00;14;14;7
70520;PMS5003;58442;52.716;23.560;2023-12-14T02:19:01;19;13;7
70520;PMS5003;58442;52.716;23.560;2023-12-14T02:21:11;12;12;7
70520;PMS5003;58442;52.716;23.560;2023-12-14T02:23:13;13;13;5
70520;PMS5003;58442;52.716;23.560;2023-12-14T02:25:14;9;9;5
70520;PMS5003;58442;52.716;23.560;2023-12-14T02:27:16;19;14;6
70520;PMS5003;58442;52.716;23.560;2023-12-14T02:29:26;19;17;9
70520;PMS5003;58442;52.716;23.560;2023-12-14T02:31:28;11;11;7
70520;PMS5003;58442;52.716;23.560;2023-12-14T02:33:29;12;12;7
70520;PMS5003;58442;52.716;23.560;2023-12-14T02:35:31;15;11;7
70520;PMS5003;58442;52.716;23.560;2023-12-14T02:37:41;12;11;7
70520;PMS5003;58442;52.716;23.560;2023-12-14T02:39:42;9;9;7
70520;PMS5003;58442;52.716;23.560;2023-12-14T02:41:48;12;12;8
70520;PMS5003;58442;52.716;23.560;2023-12-14T02:43:49;13;13;8
70520;PMS5003;58442;52.716;23.560;2023-12-14T02:45:56;11;6;3
70520;PMS5003;58442;52.716;23.560;2023-12-14T02:48:03;16;14;6
70520;PMS5003;58442;52.716;23.560;2023-12-14T02:50:05;12;12;7
70520;PMS5003;58442;52.716;23.560;2023-12-14T02:52:07;8;8;4
70520;PMS5003;58442;52.716;23.560;2023-12-14T02:54:11;22;10;5
70520;PMS5003;58442;52.716;23.560;2023-12-14T02:56:12;12;12;7
70520;PMS5003;58442;52.716;23.560;2023-12-14T02:58:14;19;18;8
70520;PMS5003;58442;52.716;23.560;2023-12-14T03:00:16;10;10;8
70520;PMS5003;58442;52.716;23.560;2023-12-14T03:02:26;11;11;8
70520;PMS5003;58442;52.716;23.560;2023-12-14T03:04:27;18;15;7
70520;PMS5003;58442;52.716;23.560;2023-12-14T03:06:29;15;15;8
70520;PMS5003;58442;52.716;23.560;2023-12-14T03:08:31;13;13;7
70520;PMS5003;58442;52.716;23.560;2023-12-14T03:10:41;17;16;8
70520;PMS5003;58442;52.716;23.560;2023-12-14T03:12:42;14;13;7
70520;PMS5003;58442;52.716;23.560;2023-12-14T03:14:44;23;15;8
70520;PMS5003;58442;52.716;23.560;2023-12-14T03:16:46;13;12;6
70520;PMS5003;58442;52.716;23.560;2023-12-14T03:18:56;12;11;6
70520;PMS5003;58442;52.716;23.560;2023-12-14T03:20:57;22;16;9
70520;PMS5003;58442;52.716;23.560;2023-12-14T03:22:59;15;14;6
70520;PMS5003;58442;52.716;23.560;2023-12-14T03:25:01;12;12;5
70520;PMS5003;58442;52.716;23.560;2023-12-14T03:27:11;14;13;8
70520;PMS5003;58442;52.716;23.560;2023-12-14T03:29:12;14;13;8
70520;PMS5003;58442;52.716;23.560;2023-12-14T03:31:14;18;15;8
70520;PMS5003;58442;52.716;23.560;2023-12-14T03:33:16;10;9;5
70520;PMS5003;58442;52.716;23.560;2023-12-14T03:35:26;12;12;7
70520;PMS5003;58442;52.716;23.560;2023-12-14T03:37:27;21;16;7
70520;PMS5003;58442;52.716;23.560;2023-12-14T03:39:29;15;15;7
70520;PMS5003;58442;52.716;23.560;2023-12-14T03:41:30;15;14;8
70520;PMS5003;58442;52.716;23.560;2023-12-14T03:43:41;17;16;8
70520;PMS5003;58442;52.716;23.560;2023-12-14T03:45:42;16;10;6
70520;PMS5003;58442;52.716;23.560;2023-12-14T03:47:44;12;9;4
70520;PMS5003;58442;52.716;23.560;2023-12-14T03:49:46;14;13;7
70520;PMS5003;58442;52.716;23.560;2023-12-14T03:51:56;14;13;8
70520;PMS5003;58442;52.716;23.560;2023-12-14T03:53:57;10;10;6
70520;PMS5003;58442;52.716;23.560;2023-12-14T03:55:59;13;12;7
70520;PMS5003;58442;52.716;23.560;2023-12-14T03:58:01;19;16;6
70520;PMS5003;58442;52.716;23.560;2023-12-14T04:00:11;16;15;6
70520;PMS5003;58442;52.716;23.560;2023-12-14T04:02:14;19;16;10
70520;PMS5003;58442;52.716;23.560;2023-12-14T04:04:15;12;12;7
70520;PMS5003;58442;52.716;23.560;2023-12-14T04:06:17;12;10;6
70520;PMS5003;58442;52.716;23.560;2023-12-14T04:08:26;9;9;3
70520;PMS5003;58442;52.716;23.560;2023-12-14T04:10:27;16;16;7
70520;PMS5003;58442;52.716;23.560;2023-12-14T04:12:29;16;14;8
70520;PMS5003;58442;52.716;23.560;2023-12-14T04:14:30;11;10;6
70520;PMS5003;58442;52.716;23.560;2023-12-14T04:16:41;15;15;6
70520;PMS5003;58442;52.716;23.560;2023-12-14T04:18:43;16;14;7
70520;PMS5003;58442;52.716;23.560;2023-12-14T04:20:45;11;10;6
70520;PMS5003;58442;52.716;23.560;2023-12-14T04:22:47;10;9;5
70520;PMS5003;58442;52.716;23.560;2023-12-14T04:24:56;10;10;6
70520;PMS5003;58442;52.716;23.560;2023-12-14T04:26:57;12;10;6
70520;PMS5003;58442;52.716;23.560;2023-12-14T04:28:59;12;12;8
70520;PMS5003;58442;52.716;23.560;2023-12-14T04:31:01;19;17;9
70520;PMS5003;58442;52.716;23.560;2023-12-14T04:33:11;15;15;8
70520;PMS5003;58442;52.716;23.560;2023-12-14T04:35:12;18;14;7
70520;PMS5003;58442;52.716;23.560;2023-12-14T04:37:14;16;12;8
70520;PMS5003;58442;52.716;23.560;2023-12-14T04:39:16;13;10;5
70520;PMS5003;58442;52.716;23.560;2023-12-14T04:41:26;17;16;6
70520;PMS5003;58442;52.716;23.560;2023-12-14T04:43:27;19;15;7
70520;PMS5003;58442;52.716;23.560;2023-12-14T04:45:33;16;14;7
70520;PMS5003;58442;52.716;23.560;2023-12-14T04:47:34;13;13;7
70520;PMS5003;58442;52.716;23.560;2023-12-14T04:49:41;14;12;7
70520;PMS5003;58442;52.716;23.560;2023-12-14T04:51:43;12;12;7
70520;PMS5003;58442;52.716;23.560;2023-12-14T04:53:44;9;9;7
70520;PMS5003;58442;52.716;23.560;2023-12-14T04:55:46;15;15;7
70520;PMS5003;58442;52.716;23.560;2023-12-14T04:57:56;15;14;8
70520;PMS5003;58442;52.716;23.560;2023-12-14T04:59:57;12;11;7
70520;PMS5003;58442;52.716;23.560;2023-12-14T05:01:59;14;11;5
70520;PMS5003;58442;52.716;23.560;2023-12-14T05:04:00;11;11;7
70520;PMS5003;58442;52.716;23.560;2023-12-14T05:06:11;12;11;6
70520;PMS5003;58442;52.716;23.560;2023-12-14T05:08:12;14;14;8
70520;PMS5003;58442;52.716;23.560;2023-12-14T05:10:14;9;9;5
70520;PMS5003;58442;52.716;23.560;2023-12-14T05:12:16;11;11;7
70520;PMS5003;58442;52.716;23.560;2023-12-14T05:14:26;15;14;10
70520;PMS5003;58442;52.716;23.560;2023-12-14T05:16:30;14;13;6
70520;PMS5003;58442;52.716;23.560;2023-12-14T05:18:31;15;11;7
70520;PMS5003;58442;52.716;23.560;2023-12-14T05:20:34;16;14;8
70520;PMS5003;58442;52.716;23.560;2023-12-14T05:22:41;20;19;9
70520;PMS5003;58442;52.716;23.560;2023-12-14T05:24:45;13;13;7
70520;PMS5003;58442;52.716;23.560;2023-12-14T05:26:47;13;11;7
70520;PMS5003;58442;52.716;23.560;2023-12-14T05:28:50;19;18;9
70520;PMS5003;58442;52.716;23.560;2023-12-14T05:30:56;14;13;8
70520;PMS5003;58442;52.716;23.560;2023-12-14T05:32:57;18;17;10
70520;PMS5003;58442;52.716;23.560;2023-12-14T05:34:59;21;21;11
70520;PMS5003;58442;52.716;23.560;2023-12-14T05:37:01;19;19;10
70520;PMS5003;58442;52.716;23.560;2023-12-14T05:39:11;16;16;8
70520;PMS5003;58442;52.716;23.560;2023-12-14T05:41:12;18;18;10
70520;PMS5003;58442;52.716;23.560;2023-12-14T05:43:14;12;12;8
70520;PMS5003;58442;52.716;23.560;2023-12-14T05:45:16;18;18;7
70520;PMS5003;58442;52.716;23.560;2023-12-14T05:47:26;35;32;16
70520;PMS5003;58442;52.716;23.560;2023-12-14T05:49:28;34;24;12
70520;PMS5003;58442;52.716;23.560;2023-12-14T05:51:30;28;27;14
70520;PMS5003;58442;52.716;23.560;2023-12-14T05:53:32;24;23;13
70520;PMS5003;58442;52.716;23.560;2023-12-14T05:55:41;23;19;11
70520;PMS5003;58442;52.716;23.560;2023-12-14T05:57:43;30;28;14
70520;PMS5003;58442;52.716;23.560;2023-12-14T05:59:45;31;28;12
70520;PMS5003;58442;52.716;23.560;2023-12-14T06:01:47;23;20;9
70520;PMS5003;58442;52.716;23.560;2023-12-14T06:03:56;30;26;15
70520;PMS5003;58442;52.716;23.560;2023-12-14T06:05:57;29;26;14
70520;PMS5003;58442;52.716;23.560;2023-12-14T06:07:59;25;23;15
70520;PMS5003;58442;52.716;23.560;2023-12-14T06:10:01;29;28;14
70520;PMS5003;58442;52.716;23.560;2023-12-14T06:12:14;44;36;16
70520;PMS5003;58442;52.716;23.560;2023-12-14T06:14:16;48;30;15
70520;PMS5003;58442;52.716;23.560;2023-12-14T06:16:18;24;21;11
70520;PMS5003;58442;52.716;23.560;2023-12-14T06:18:19;35;31;15
70520;PMS5003;58442;52.716;23.560;2023-12-14T06:20:29;23;19;14
70520;PMS5003;58442;52.716;23.560;2023-12-14T06:22:31;22;20;10
70520;PMS5003;58442;52.716;23.560;2023-12-14T06:24:33;31;28;15
70520;PMS5003;58442;52.716;23.560;2023-12-14T06:26:36;32;25;10
70520;PMS5003;58442;52.716;23.560;2023-12-14T06:28:44;29;28;13
70520;PMS5003;58442;52.716;23.560;2023-12-14T06:30:46;28;24;17
70520;PMS5003;58442;52.716;23.560;2023-12-14T06:32:48;37;31;16
70520;PMS5003;58442;52.716;23.560;2023-12-14T06:34:49;34;29;10
70520;PMS5003;58442;52.716;23.560;2023-12-14T06:36:59;33;27;14
70520;PMS5003;58442;52.716;23.560;2023-12-14T06:39:03;28;27;14
70520;PMS5003;58442;52.716;23.560;2023-12-14T06:41:05;34;29;14
70520;PMS5003;58442;52.716;23.560;2023-12-14T06:43:07;31;28;17
70520;PMS5003;58442;52.716;23.560;2023-12-14T06:45:15;31;29;16
70520;PMS5003;58442;52.716;23.560;2023-12-14T06:47:16;41;36;20
70520;PMS5003;58442;52.716;23.560;2023-12-14T06:49:18;42;30;16
70520;PMS5003;58442;52.716;23.560;2023-12-14T06:51:20;20;20;16
70520;PMS5003;58442;52.716;23.560;2023-12-14T06:53:31;30;28;15
70520;PMS5003;58442;52.716;23.560;2023-12-14T06:55:33;36;33;19
70520;PMS5003;58442;52.716;23.560;2023-12-14T06:57:35;37;30;16
70520;PMS5003;58442;52.716;23.560;2023-12-14T06:59:36;35;25;10
70520;PMS5003;58442;52.716;23.560;2023-12-14T07:01:48;33;28;16
70520;PMS5003;58442;52.716;23.560;2023-12-14T07:03:50;37;30;16
70520;PMS5003;58442;52.716;23.560;2023-12-14T07:05:52;33;32;18
70520;PMS5003;58442;52.716;23.560;2023-12-14T07:07:53;40;33;20
70520;PMS5003;58442;52.716;23.560;2023-12-14T07:10:04;31;28;18
70520;PMS5003;58442;52.716;23.560;2023-12-14T07:12:06;38;30;17
70520;PMS5003;58442;52.716;23.560;2023-12-14T07:14:09;47;34;18
70520;PMS5003;58442;52.716;23.560;2023-12-14T07:16:11;39;33;17
70520;PMS5003;58442;52.716;23.560;2023-12-14T07:18:22;40;34;17
70520;PMS5003;58442;52.716;23.560;2023-12-14T07:20:24;41;35;14
70520;PMS5003;58442;52.716;23.560;2023-12-14T07:22:25;36;29;16
70520;PMS5003;58442;52.716;23.560;2023-12-14T07:24:27;41;35;20
70520;PMS5003;58442;52.716;23.560;2023-12-14T07:26:39;46;36;17
70520;PMS5003;58442;52.716;23.560;2023-12-14T07:28:40;51;35;18
70520;PMS5003;58442;52.716;23.560;2023-12-14T07:30:42;37;33;20
70520;PMS5003;58442;52.716;23.560;2023-12-14T07:32:44;33;27;17
70520;PMS5003;58442;52.716;23.560;2023-12-14T07:34:56;37;31;19
70520;PMS5003;58442;52.716;23.560;2023-12-14T07:36:57;34;31;17
70520;PMS5003;58442;52.716;23.560;2023-12-14T07:38:59;36;32;15
70520;PMS5003;58442;52.716;23.560;2023-12-14T07:41:02;46;30;19
70520;PMS5003;58442;52.716;23.560;2023-12-14T07:43:11;37;33;17
70520;PMS5003;58442;52.716;23.560;2023-12-14T07:45:12;38;32;17
70520;PMS5003;58442;52.716;23.560;2023-12-14T07:47:14;33;32;16
70520;PMS5003;58442;52.716;23.560;2023-12-14T07:49:16;33;31;18
70520;PMS5003;58442;52.716;23.560;2023-12-14T07:51:26;39;31;15
70520;PMS5003;58442;52.716;23.560;2023-12-14T07:53:28;24;23;15
70520;PMS5003;58442;52.716;23.560;2023-12-14T07:55:30;26;23;13
70520;PMS5003;58442;52.716;23.560;2023-12-14T07:57:32;32;29;14
70520;PMS5003;58442;52.716;23.560;2023-12-14T07:59:42;24;20;13
70520;PMS5003;58442;52.716;23.560;2023-12-14T08:01:43;26;26;13
70520;PMS5003;58442;52.716;23.560;2023-12-14T08:03:45;25;23;11
70520;PMS5003;58442;52.716;23.560;2023-12-14T08:05:47;25;23;13
70520;PMS5003;58442;52.716;23.560;2023-12-14T08:07:57;28;22;11
70520;PMS5003;58442;52.716;23.560;2023-12-14T08:09:59;30;27;13
70520;PMS5003;58442;52.716;23.560;2023-12-14T08:12:00;26;24;11
70520;PMS5003;58442;52.716;23.560;2023-12-14T08:14:02;28;23;12
70520;PMS5003;58442;52.716;23.560;2023-12-14T08:16:12;20;18;10
70520;PMS5003;58442;52.716;23.560;2023-12-14T08:18:13;23;19;12
70520;PMS5003;58442;52.716;23.560;2023-12-14T08:20:15;16;16;7
70520;PMS5003;58442;52.716;23.560;2023-12-14T08:22:17;9;9;7
70520;PMS5003;58442;52.716;23.560;2023-12-14T08:24:27;19;18;12
70520;PMS5003;58442;52.716;23.560;2023-12-14T08:26:29;17;16;10
70520;PMS5003;58442;52.716;23.560;2023-12-14T08:28:30;17;16;10
70520;PMS5003;58442;52.716;23.560;2023-12-14T08:30:32;22;17;11
70520;PMS5003;58442;52.716;23.560;2023-12-14T08:32:42;18;17;10
70520;PMS5003;58442;52.716;23.560;2023-12-14T08:34:43;22;21;13
70520;PMS5003;58442;52.716;23.560;2023-12-14T08:36:45;20;19;11
70520;PMS5003;58442;52.716;23.560;2023-12-14T08:38:47;22;19;10
70520;PMS5003;58442;52.716;23.560;2023-12-14T08:40:57;15;14;8
70520;PMS5003;58442;52.716;23.560;2023-12-14T08:42:59;13;12;7
70520;PMS5003;58442;52.716;23.560;2023-12-14T08:45:00;12;12;9
70520;PMS5003;58442;52.716;23.560;2023-12-14T08:47:02;11;11;7
70520;PMS5003;58442;52.716;23.560;2023-12-14T08:49:12;17;17;8
70520;PMS5003;58442;52.716;23.560;2023-12-14T08:51:15;20;18;10
70520;PMS5003;58442;52.716;23.560;2023-12-14T08:53:19;13;12;8
70520;PMS5003;58442;52.716;23.560;2023-12-14T08:55:21;21;17;10
70520;PMS5003;58442;52.716;23.560;2023-12-14T08:57:27;16;16;10
70520;PMS5003;58442;52.716;23.560;2023-12-14T08:59:28;23;20;12
70520;PMS5003;58442;52.716;23.560;2023-12-14T09:01:31;14;14;10
70520;PMS5003;58442;52.716;23.560;2023-12-14T09:03:33;13;13;8
70520;PMS5003;58442;52.716;23.560;2023-12-14T09:05:42;16;15;8
70520;PMS5003;58442;52.716;23.560;2023-12-14T09:07:44;16;16;10
70520;PMS5003;58442;52.716;23.560;2023-12-14T09:09:46;19;16;8
70520;PMS5003;58442;52.716;23.560;2023-12-14T09:11:48;16;16;9
70520;PMS5003;58442;52.716;23.560;2023-12-14T09:13:57;20;20;12
70520;PMS5003;58442;52.716;23.560;2023-12-14T09:15:59;18;18;12
70520;PMS5003;58442;52.716;23.560;2023-12-14T09:18:00;17;15;9
70520;PMS5003;58442;52.716;23.560;2023-12-14T09:20:02;15;15;11
70520;PMS5003;58442;52.716;23.560;2023-12-14T09:22:12;18;17;11
70520;PMS5003;58442;52.716;23.560;2023-12-14T09:24:13;17;14;10
70520;PMS5003;58442;52.716;23.560;2023-12-14T09:26:15;16;16;10
70520;PMS5003;58442;52.716;23.560;2023-12-14T09:28:16;12;12;7
70520;PMS5003;58442;52.716;23.560;2023-12-14T09:30:27;20;17;10
70520;PMS5003;58442;52.716;23.560;2023-12-14T09:32:28;20;19;11
70520;PMS5003;58442;52.716;23.560;2023-12-14T09:34:30;21;15;10
70520;PMS5003;58442;52.716;23.560;2023-12-14T09:36:32;15;15;8
70520;PMS5003;58442;52.716;23.560;2023-12-14T09:38:42;23;20;10
70520;PMS5003;58442;52.716;23.560;2023-12-14T09:40:43;12;12;5
70520;PMS5003;58442;52.716;23.560;2023-12-14T09:42:45;18;17;10
70520;PMS5003;58442;52.716;23.560;2023-12-14T09:44:51;23;20;11
70520;PMS5003;58442;52.716;23.560;2023-12-14T09:47:00;21;20;12
70520;PMS5003;58442;52.716;23.560;2023-12-14T09:49:03;18;17;8
70520;PMS5003;58442;52.716;23.560;2023-12-14T09:51:06;18;18;12
70520;PMS5003;58442;52.716;23.560;2023-12-14T09:53:08;18;17;10
70520;PMS5003;58442;52.716;23.560;2023-12-14T09:55:12;12;11;6
70520;PMS5003;58442;52.716;23.560;2023-12-14T09:57:14;17;13;6
70520;PMS5003;58442;52.716;23.560;2023-12-14T09:59:16;12;12;8
70520;PMS5003;58442;52.716;23.560;2023-12-14T10:01:21;14;13;7
70520;PMS5003;58442;52.716;23.560;2023-12-14T10:03:27;21;15;9
70520;PMS5003;58442;52.716;23.560;2023-12-14T10:05:29;15;15;10
70520;PMS5003;58442;52.716;23.560;2023-12-14T10:07:31;25;18;6
70520;PMS5003;58442;52.716;23.560;2023-12-14T10:09:33;19;18;10
70520;PMS5003;58442;52.716;23.560;2023-12-14T10:11:42;21;19;10
70520;PMS5003;58442;52.716;23.560;2023-12-14T10:13:45;20;19;11
70520;PMS5003;58442;52.716;23.560;2023-12-14T10:15:47;16;16;9
70520;PMS5003;58442;52.716;23.560;2023-12-14T10:17:52;20;18;8
70520;PMS5003;58442;52.716;23.560;2023-12-14T10:19:57;24;20;9
70520;PMS5003;58442;52.716;23.560;2023-12-14T10:22:04;26;23;10
70520;PMS5003;58442;52.716;23.560;2023-12-14T10:24:09;13;13;6
70520;PMS5003;58442;52.716;23.560;2023-12-14T10:26:11;21;21;9
70520;PMS5003;58442;52.716;23.560;2023-12-14T10:28:15;29;29;11
70520;PMS5003;58442;52.716;23.560;2023-12-14T10:30:18;29;27;14
70520;PMS5003;58442;52.716;23.560;2023-12-14T10:32:20;22;22;12
70520;PMS5003;58442;52.716;23.560;2023-12-14T10:34:22;21;21;14
70520;PMS5003;58442;52.716;23.560;2023-12-14T10:36:30;28;25;13
70520;PMS5003;58442;52.716;23.560;2023-12-14T10:38:33;22;21;14
70520;PMS5003;58442;52.716;23.560;2023-12-14T10:40:38;21;20;12
70520;PMS5003;58442;52.716;23.560;2023-12-14T10:42:45;35;22;9
70520;PMS5003;58442;52.716;23.560;2023-12-14T10:44:50;28;24;13
70520;PMS5003;58442;52.716;23.560;2023-12-14T10:46:57;43;34;16
70520;PMS5003;58442;52.716;23.560;2023-12-14T10:49:00;22;22;13
70520;PMS5003;58442;52.716;23.560;2023-12-14T10:51:03;23;22;11
70520;PMS5003;58442;52.716;23.560;2023-12-14T10:53:06;23;22;15
70520;PMS5003;58442;52.716;23.560;2023-12-14T10:57:23;20;20;8
70520;PMS5003;58442;52.716;23.560;2023-12-14T10:59:25;17;17;11
70520;PMS5003;58442;52.716;23.560;2023-12-14T11:01:28;21;21;10
70520;PMS5003;58442;52.716;23.560;2023-12-14T11:03:33;29;25;10
70520;PMS5003;58442;52.716;23.560;2023-12-14T11:05:36;21;16;7
70520;PMS5003;58442;52.716;23.560;2023-12-14T11:07:59;20;18;9
70520;PMS5003;58442;52.716;23.560;2023-12-14T11:09:55;31;23;11
70520;PMS5003;58442;52.716;23.560;2023-12-14T11:12:04;30;25;11
70520;PMS5003;58442;52.716;23.560;2023-12-14T11:14:12;22;22;14
70520;PMS5003;58442;52.716;23.560;2023-12-14T11:16:22;25;22;12
70520;PMS5003;58442;52.716;23.560;2023-12-14T11:18:24;29;29;13
70520;PMS5003;58442;52.716;23.560;2023-12-14T11:20:27;32;30;13
70520;PMS5003;58442;52.716;23.560;2023-12-14T11:22:29;39;34;17
70520;PMS5003;58442;52.716;23.560;2023-12-14T11:24:32;25;24;11
70520;PMS5003;58442;52.716;23.560;2023-12-14T11:26:33;22;21;11
70520;PMS5003;58442;52.716;23.560;2023-12-14T11:28:40;26;23;10
70520;PMS5003;58442;52.716;23.560;2023-12-14T11:30:46;25;20;10
70520;PMS5003;58442;52.716;23.560;2023-12-14T11:32:48;27;23;11
70520;PMS5003;58442;52.716;23.560;2023-12-14T11:34:50;22;21;11
70520;PMS5003;58442;52.716;23.560;2023-12-14T11:36:55;18;18;9
70520;PMS5003;58442;52.716;23.560;2023-12-14T11:38:56;21;21;12
70520;PMS5003;58442;52.716;23.560;2023-12-14T11:40:58;26;21;9
70520;PMS5003;58442;52.716;23.560;2023-12-14T11:43:01;21;20;12
70520;PMS5003;58442;52.716;23.560;2023-12-14T11:45:10;16;16;10
70520;PMS5003;58442;52.716;23.560;2023-12-14T11:47:11;20;19;10
70520;PMS5003;58442;52.716;23.560;2023-12-14T11:49:13;18;15;8
70520;PMS5003;58442;52.716;23.560;2023-12-14T11:51:15;25;19;11
70520;PMS5003;58442;52.716;23.560;2023-12-14T11:53:25;23;21;12
70520;PMS5003;58442;52.716;23.560;2023-12-14T11:55:26;22;21;11
70520;PMS5003;58442;52.716;23.560;2023-12-14T11:57:28;27;25;11
70520;PMS5003;58442;52.716;23.560;2023-12-14T11:59:31;19;18;11
70520;PMS5003;58442;52.716;23.560;2023-12-14T12:01:40;24;24;14
70520;PMS5003;58442;52.716;23.560;2023-12-14T12:04:08;20;18;7
70520;PMS5003;58442;52.716;23.560;2023-12-14T12:08:25;22;21;12
70520;PMS5003;58442;52.716;23.560;2023-12-14T12:10:26;26;26;13
70520;PMS5003;58442;52.716;23.560;2023-12-14T12:12:29;35;30;17
70520;PMS5003;58442;52.716;23.560;2023-12-14T12:14:35;22;20;11
70520;PMS5003;58442;52.716;23.560;2023-12-14T12:16:37;21;21;14
70520;PMS5003;58442;52.716;23.560;2023-12-14T12:18:38;20;20;12
70520;PMS5003;58442;52.716;23.560;2023-12-14T12:20:44;24;22;14
70520;PMS5003;58442;52.716;23.560;2023-12-14T12:22:46;19;17;11
70520;PMS5003;58442;52.716;23.560;2023-12-14T12:24:47;29;27;14
70520;PMS5003;58442;52.716;23.560;2023-12-14T12:26:49;21;21;11
70520;PMS5003;58442;52.716;23.560;2023-12-14T12:28:59;25;21;10
70520;PMS5003;58442;52.716;23.560;2023-12-14T12:31:04;18;16;9
70520;PMS5003;58442;52.716;23.560;2023-12-14T12:33:06;22;19;11
70520;PMS5003;58442;52.716;23.560;2023-12-14T12:35:07;19;16;9
70520;PMS5003;58442;52.716;23.560;2023-12-14T12:37:14;20;17;7
70520;PMS5003;58442;52.716;23.560;2023-12-14T12:39:16;24;22;11
70520;PMS5003;58442;52.716;23.560;2023-12-14T12:41:18;16;16;11
70520;PMS5003;58442;52.716;23.560;2023-12-14T12:43:19;17;15;10
70520;PMS5003;58442;52.716;23.560;2023-12-14T12:45:29;17;17;7
70520;PMS5003;58442;52.716;23.560;2023-12-14T12:47:33;22;21;13
70520;PMS5003;58442;52.716;23.560;2023-12-14T12:49:34;27;20;9
70520;PMS5003;58442;52.716;23.560;2023-12-14T12:51:36;18;18;9
70520;PMS5003;58442;52.716;23.560;2023-12-14T12:53:44;22;20;11
70520;PMS5003;58442;52.716;23.560;2023-12-14T12:55:46;17;17;11
70520;PMS5003;58442;52.716;23.560;2023-12-14T12:57:48;17;17;10
70520;PMS5003;58442;52.716;23.560;2023-12-14T13:00:28;24;22;12
70520;PMS5003;58442;52.716;23.560;2023-12-14T13:02:30;20;17;10
70520;PMS5003;58442;52.716;23.560;2023-12-14T13:04:32;18;17;9
70520;PMS5003;58442;52.716;23.560;2023-12-14T13:06:43;20;19;11
70520;PMS5003;58442;52.716;23.560;2023-12-14T13:08:45;35;28;12
70520;PMS5003;58442;52.716;23.560;2023-12-14T13:10:46;28;20;12
70520;PMS5003;58442;52.716;23.560;2023-12-14T13:12:52;23;22;14
70520;PMS5003;58442;52.716;23.560;2023-12-14T13:14:58;20;18;9
70520;PMS5003;58442;52.716;23.560;2023-12-14T13:17:00;21;20;9